Time;durP1;ratioP1;P1;durP2;ratioP2;P2;SDS_P1;SDS_P2;PMS_P1;PMS_P2;Temp;Humidity;BMP_temperature;BMP_pressure;BME280_temperature;BME280_humidity;BME280_pressure;Samples;Min_cycle;Max_cycle;Signal;HPM_P1;HPM_P2
2022/07/24 00:00:03;;;;;;;6.03;5.30;;;;;;;;;;5058336;28;20532;-84
2022/07/24 00:02:30;;;;;;;6.20;5.60;;;;;;;;;;5058747;28;20068;-84
2022/07/24 00:05:00;;;;;;;7.38;6.10;;;;;;;;;;5060187;28;20048;-85
2022/07/24 00:07:27;;;;;;;5.80;5.40;;;;;;;;;;5058308;28;20105;-85
2022/07/24 00:09:55;;;;;;;5.50;5.00;;;;;;;;;;5058529;28;20482;-86
2022/07/24 00:12:23;;;;;;;6.22;5.72;;;;;;;;;;5058847;28;20048;-86
2022/07/24 00:14:50;;;;;;;6.50;5.90;;;;;;;;;;5058881;28;20482;-85
2022/07/24 00:17:18;;;;;;;6.07;5.55;;;;;;;;;;5076621;28;20098;-85
2022/07/24 00:19:45;;;;;;;6.68;5.70;;;;;;;;;;5058958;28;20106;-84
2022/07/24 00:22:12;;;;;;;6.43;5.88;;;;;;;;;;5059271;28;20079;-85
2022/07/24 00:24:40;;;;;;;8.40;5.85;;;;;;;;;;5059339;28;20091;-85
2022/07/24 00:27:07;;;;;;;7.35;5.78;;;;;;;;;;5058938;28;20053;-84
2022/07/24 00:29:34;;;;;;;6.43;5.43;;;;;;;;;;5058785;28;20070;-85
2022/07/24 00:32:01;;;;;;;6.05;5.53;;;;;;;;;;5059144;28;20544;-85
2022/07/24 00:34:28;;;;;;;6.07;5.30;;;;;;;;;;5059115;28;20076;-85
2022/07/24 00:36:55;;;;;;;6.32;5.78;;;;;;;;;;5058997;28;20051;-86
2022/07/24 00:39:23;;;;;;;6.20;5.70;;;;;;;;;;5059123;28;20126;-85
2022/07/24 00:41:52;;;;;;;7.43;6.35;;;;;;;;;;5059003;28;20072;-85
2022/07/24 00:44:20;;;;;;;6.47;5.55;;;;;;;;;;5059394;28;20155;-85
2022/07/24 00:46:48;;;;;;;7.30;5.88;;;;;;;;;;5059453;28;20049;-86
2022/07/24 00:49:17;;;;;;;6.40;5.90;;;;;;;;;;5077971;28;20072;-84
2022/07/24 00:51:49;;;;;;;6.35;5.75;;;;;;;;;;5057266;28;20044;-84
2022/07/24 00:54:17;;;;;;;6.28;5.65;;;;;;;;;;5073955;28;20086;-85
2022/07/24 00:56:45;;;;;;;6.28;5.78;;;;;;;;;;5056244;28;20104;-84
2022/07/24 00:59:12;;;;;;;6.55;5.82;;;;;;;;;;5074197;28;20048;-84
2022/07/24 01:01:40;;;;;;;5.97;5.45;;;;;;;;;;5056427;28;20048;-84
2022/07/24 01:04:07;;;;;;;6.13;5.63;;;;;;;;;;5057484;28;20040;-85
2022/07/24 01:06:40;;;;;;;7.47;5.72;;;;;;;;;;5078345;28;20052;-85
2022/07/24 01:09:08;;;;;;;5.93;5.43;;;;;;;;;;5061359;28;20087;-86
2022/07/24 01:11:35;;;;;;;6.25;5.72;;;;;;;;;;5061597;28;20055;-85
2022/07/24 01:14:02;;;;;;;8.35;6.05;;;;;;;;;;5060522;28;20045;-85
2022/07/24 01:16:29;;;;;;;7.07;6.40;;;;;;;;;;5059774;28;20041;-85
2022/07/24 01:18:56;;;;;;;6.78;6.18;;;;;;;;;;5060499;28;20084;-86
2022/07/24 01:21:25;;;;;;;7.15;6.50;;;;;;;;;;5060691;28;20395;-86
2022/07/24 01:23:52;;;;;;;7.20;6.57;;;;;;;;;;5060887;28;20075;-85
2022/07/24 01:26:19;;;;;;;10.55;6.28;;;;;;;;;;5063091;28;20056;-85
2022/07/24 01:28:46;;;;;;;6.78;6.18;;;;;;;;;;5079903;28;20071;-85
2022/07/24 01:31:14;;;;;;;7.18;6.53;;;;;;;;;;5057872;28;20079;-84
2022/07/24 01:33:41;;;;;;;9.13;6.90;;;;;;;;;;5055802;28;20409;-84
2022/07/24 01:36:08;;;;;;;7.45;6.75;;;;;;;;;;5056074;28;20076;-84
2022/07/24 01:38:36;;;;;;;6.57;6.05;;;;;;;;;;5055810;28;20131;-84
2022/07/24 01:41:04;;;;;;;7.25;6.70;;;;;;;;;;5055878;28;20094;-84
2022/07/24 01:43:31;;;;;;;7.35;6.65;;;;;;;;;;5073452;28;20045;-84
2022/07/24 01:45:59;;;;;;;8.80;6.68;;;;;;;;;;5055848;28;20139;-84
2022/07/24 01:48:26;;;;;;;7.72;6.90;;;;;;;;;;5055489;28;20045;-84
2022/07/24 01:50:53;;;;;;;7.93;6.85;;;;;;;;;;5073590;28;20047;-85
2022/07/24 01:53:20;;;;;;;8.35;7.00;;;;;;;;;;5073506;28;20064;-84
2022/07/24 01:55:50;;;;;;;7.63;6.72;;;;;;;;;;5055642;28;20509;-84
2022/07/24 01:58:17;;;;;;;7.10;6.50;;;;;;;;;;5055460;28;20502;-84
2022/07/24 02:00:45;;;;;;;7.35;6.65;;;;;;;;;;5072941;28;20457;-84
2022/07/24 02:03:13;;;;;;;7.45;6.53;;;;;;;;;;5055429;28;20174;-84
2022/07/24 02:05:40;;;;;;;7.13;6.43;;;;;;;;;;5055269;28;20559;-84
2022/07/24 02:08:08;;;;;;;7.82;7.03;;;;;;;;;;5055572;28;20072;-84
2022/07/24 02:10:35;;;;;;;8.82;7.38;;;;;;;;;;5055726;28;20068;-84
2022/07/24 02:13:03;;;;;;;8.50;7.40;;;;;;;;;;5055005;28;20083;-84
2022/07/24 02:15:32;;;;;;;8.25;7.40;;;;;;;;;;5055196;28;20068;-84
2022/07/24 02:18:00;;;;;;;8.30;7.53;;;;;;;;;;5072889;28;20547;-84
2022/07/24 02:20:28;;;;;;;8.27;6.65;;;;;;;;;;5056355;28;20087;-85
2022/07/24 02:22:55;;;;;;;7.82;7.15;;;;;;;;;;5074363;28;20048;-84
2022/07/24 02:25:22;;;;;;;7.60;6.88;;;;;;;;;;5073470;28;20056;-84
2022/07/24 02:27:49;;;;;;;7.88;6.88;;;;;;;;;;5055921;28;20479;-85
2022/07/24 02:30:20;;;;;;;7.82;7.13;;;;;;;;;;5058563;28;20068;-84
2022/07/24 02:32:47;;;;;;;8.18;7.47;;;;;;;;;;5059569;28;20044;-84
2022/07/24 02:35:15;;;;;;;8.50;7.70;;;;;;;;;;5059261;28;20193;-84
2022/07/24 02:37:43;;;;;;;7.88;7.18;;;;;;;;;;5059770;28;20041;-84
2022/07/24 02:40:11;;;;;;;8.63;7.55;;;;;;;;;;5077791;28;20497;-84
2022/07/24 02:42:38;;;;;;;8.40;7.50;;;;;;;;;;5059479;28;20048;-85
2022/07/24 02:45:07;;;;;;;8.40;7.60;;;;;;;;;;5059403;28;20053;-85
2022/07/24 02:47:34;;;;;;;8.95;7.95;;;;;;;;;;5059421;28;20056;-85
2022/07/24 02:50:01;;;;;;;9.65;7.60;;;;;;;;;;5077561;28;20086;-85
2022/07/24 02:52:28;;;;;;;12.73;7.47;;;;;;;;;;5077646;28;20048;-84
2022/07/24 02:54:56;;;;;;;9.35;7.85;;;;;;;;;;5059458;28;20437;-85
2022/07/24 02:57:23;;;;;;;8.52;7.72;;;;;;;;;;5059702;28;20049;-84
2022/07/24 02:59:51;;;;;;;10.00;8.60;;;;;;;;;;5059939;28;20059;-84
2022/07/24 03:02:19;;;;;;;8.63;7.82;;;;;;;;;;5059918;28;20064;-84
2022/07/24 03:04:47;;;;;;;8.90;8.02;;;;;;;;;;5059987;28;20387;-85
2022/07/24 03:07:14;;;;;;;9.88;7.80;;;;;;;;;;5059988;28;20106;-84
2022/07/24 03:09:41;;;;;;;9.18;8.23;;;;;;;;;;5060213;28;20067;-85
2022/07/24 03:12:09;;;;;;;8.27;7.57;;;;;;;;;;5060052;28;20409;-85
2022/07/24 03:14:37;;;;;;;8.85;8.13;;;;;;;;;;5060333;28;20117;-85
2022/07/24 03:17:05;;;;;;;9.10;8.20;;;;;;;;;;5060149;28;20098;-85
2022/07/24 03:19:32;;;;;;;8.60;7.80;;;;;;;;;;5078155;28;20647;-84
2022/07/24 03:21:59;;;;;;;9.20;8.30;;;;;;;;;;5061993;28;20049;-84
2022/07/24 03:24:27;;;;;;;9.23;8.32;;;;;;;;;;5060420;28;20045;-85
2022/07/24 03:26:54;;;;;;;9.65;8.48;;;;;;;;;;5060103;28;20083;-85
2022/07/24 03:29:21;;;;;;;9.05;8.15;;;;;;;;;;5059526;28;20053;-84
2022/07/24 03:31:48;;;;;;;10.98;8.45;;;;;;;;;;5060373;28;20080;-84
2022/07/24 03:34:15;;;;;;;10.45;9.52;;;;;;;;;;5062126;28;20055;-85
2022/07/24 03:36:43;;;;;;;8.80;7.90;;;;;;;;;;5061368;28;20060;-85
2022/07/24 03:39:10;;;;;;;9.43;8.52;;;;;;;;;;5061672;28;20482;-85
2022/07/24 03:41:37;;;;;;;9.80;8.80;;;;;;;;;;5062842;28;20106;-85
2022/07/24 03:44:04;;;;;;;9.20;8.30;;;;;;;;;;5078179;28;20048;-84
2022/07/24 03:46:31;;;;;;;9.15;8.25;;;;;;;;;;5077900;28;20087;-85
2022/07/24 03:48:58;;;;;;;9.75;8.85;;;;;;;;;;5059774;28;20052;-84
2022/07/24 03:51:28;;;;;;;9.52;8.52;;;;;;;;;;5059730;28;20490;-84
2022/07/24 03:53:55;;;;;;;9.95;8.50;;;;;;;;;;5057905;28;20051;-84
2022/07/24 03:56:23;;;;;;;9.50;8.73;;;;;;;;;;5057834;28;20091;-85
2022/07/24 03:58:52;;;;;;;11.30;10.10;;;;;;;;;;5058146;28;20048;-84
2022/07/24 04:01:19;;;;;;;10.60;9.57;;;;;;;;;;5057485;28;20094;-84
2022/07/24 04:03:46;;;;;;;11.90;10.18;;;;;;;;;;5057482;28;20040;-84
2022/07/24 04:06:14;;;;;;;11.52;10.25;;;;;;;;;;5075064;28;20123;-84
2022/07/24 04:08:41;;;;;;;12.52;9.48;;;;;;;;;;5057147;28;20052;-84
2022/07/24 04:11:08;;;;;;;10.95;8.93;;;;;;;;;;5074426;28;20079;-84
2022/07/24 04:13:35;;;;;;;10.15;9.25;;;;;;;;;;5075070;28;20072;-84
2022/07/24 04:16:09;;;;;;;8.85;7.95;;;;;;;;;;5057367;28;20049;-85
2022/07/24 04:18:36;;;;;;;9.85;8.73;;;;;;;;;;5057621;28;20048;-85
2022/07/24 04:21:04;;;;;;;9.45;7.82;;;;;;;;;;5057264;28;20052;-85
2022/07/24 04:23:31;;;;;;;11.27;8.43;;;;;;;;;;5056687;28;20080;-85
2022/07/24 04:25:58;;;;;;;8.65;7.90;;;;;;;;;;5056691;28;20088;-85
2022/07/24 04:28:25;;;;;;;8.07;7.32;;;;;;;;;;5056963;28;20465;-85
2022/07/24 04:30:52;;;;;;;12.52;7.28;;;;;;;;;;5057670;28;20049;-84
2022/07/24 04:33:19;;;;;;;7.85;7.18;;;;;;;;;;5074659;28;20056;-84
2022/07/24 04:35:47;;;;;;;8.30;7.65;;;;;;;;;;5056947;28;20074;-85
2022/07/24 04:38:14;;;;;;;8.32;7.63;;;;;;;;;;5074918;28;20140;-85
2022/07/24 04:40:41;;;;;;;8.63;7.38;;;;;;;;;;5057035;28;20051;-85
2022/07/24 04:43:08;;;;;;;7.90;7.20;;;;;;;;;;5057224;28;20076;-85
2022/07/24 04:45:38;;;;;;;7.97;7.35;;;;;;;;;;5057778;28;20098;-85
2022/07/24 04:48:06;;;;;;;7.90;7.20;;;;;;;;;;5057730;28;20072;-85
2022/07/24 04:50:34;;;;;;;8.15;7.45;;;;;;;;;;5057968;28;20084;-85
2022/07/24 04:53:01;;;;;;;8.82;7.88;;;;;;;;;;5059769;28;20048;-84
2022/07/24 04:55:28;;;;;;;7.70;7.05;;;;;;;;;;5060579;28;20048;-85
2022/07/24 04:57:55;;;;;;;7.55;6.75;;;;;;;;;;5059534;28;20497;-85
2022/07/24 05:00:22;;;;;;;7.95;7.07;;;;;;;;;;5058997;28;20084;-85
2022/07/24 05:02:50;;;;;;;7.65;6.85;;;;;;;;;;5056623;28;20131;-85
2022/07/24 05:05:17;;;;;;;7.70;7.03;;;;;;;;;;5055354;28;20072;-84
2022/07/24 05:07:44;;;;;;;7.50;6.90;;;;;;;;;;5055433;28;20063;-85
2022/07/24 05:10:11;;;;;;;8.57;7.07;;;;;;;;;;5055574;28;20473;-85
2022/07/24 05:12:38;;;;;;;7.28;6.28;;;;;;;;;;5072902;28;20382;-85
2022/07/24 05:15:06;;;;;;;6.75;6.15;;;;;;;;;;5072997;28;20049;-85
2022/07/24 05:17:37;;;;;;;6.47;5.88;;;;;;;;;;5054974;28;20053;-86
2022/07/24 05:20:05;;;;;;;5.55;5.15;;;;;;;;;;5055469;28;20086;-85
2022/07/24 05:22:32;;;;;;;8.35;5.85;;;;;;;;;;5055412;28;20068;-86
2022/07/24 05:24:59;;;;;;;11.73;5.75;;;;;;;;;;5055182;28;20498;-86
2022/07/24 05:27:26;;;;;;;6.40;4.95;;;;;;;;;;5054956;28;20053;-86
2022/07/24 05:29:54;;;;;;;5.38;4.55;;;;;;;;;;5055298;28;20468;-85
2022/07/24 05:32:21;;;;;;;5.10;4.40;;;;;;;;;;5055326;28;20505;-85
2022/07/24 05:34:48;;;;;;;5.22;4.55;;;;;;;;;;5055794;28;20075;-86
2022/07/24 05:37:15;;;;;;;5.30;4.88;;;;;;;;;;5055703;28;20482;-85
2022/07/24 05:39:42;;;;;;;5.20;4.75;;;;;;;;;;5055884;28;20040;-85
2022/07/24 05:42:09;;;;;;;4.68;4.28;;;;;;;;;;5055627;28;20102;-82
2022/07/24 05:44:37;;;;;;;4.70;4.35;;;;;;;;;;5055569;28;20044;-83
2022/07/24 05:47:04;;;;;;;5.18;4.13;;;;;;;;;;5055828;28;20071;-83
2022/07/24 05:49:33;;;;;;;5.18;4.63;;;;;;;;;;5073722;28;20080;-83
2022/07/24 05:52:02;;;;;;;6.68;3.75;;;;;;;;;;5055893;28;20057;-83
2022/07/24 05:54:35;;;;;;;4.50;4.20;;;;;;;;;;5057505;28;20055;-83
2022/07/24 05:57:02;;;;;;;5.10;4.70;;;;;;;;;;5075105;28;20097;-83
2022/07/24 05:59:29;;;;;;;4.20;3.80;;;;;;;;;;5057682;28;20494;-83
2022/07/24 06:01:56;;;;;;;5.95;4.72;;;;;;;;;;5075356;28;20056;-83
2022/07/24 06:04:24;;;;;;;4.50;4.10;;;;;;;;;;5079600;28;20045;-83
2022/07/24 06:06:51;;;;;;;4.35;3.78;;;;;;;;;;5080279;28;20076;-83
2022/07/24 06:09:18;;;;;;;6.18;3.92;;;;;;;;;;5062017;28;20044;-84
2022/07/24 06:11:46;;;;;;;4.22;3.95;;;;;;;;;;5060563;28;20047;-84
2022/07/24 06:14:14;;;;;;;4.20;3.80;;;;;;;;;;5079365;28;20055;-84
2022/07/24 06:16:41;;;;;;;3.97;3.75;;;;;;;;;;5062477;28;20049;-84
2022/07/24 06:19:08;;;;;;;4.20;3.90;;;;;;;;;;5079081;28;20417;-83
2022/07/24 06:21:35;;;;;;;4.05;3.83;;;;;;;;;;5058640;28;20049;-82
2022/07/24 06:24:02;;;;;;;3.60;3.40;;;;;;;;;;5058901;28;20117;-82
2022/07/24 06:26:33;;;;;;;3.67;3.42;;;;;;;;;;5059037;28;20049;-83
2022/07/24 06:29:20;;;;;;;5.03;4.10;;;;;;;;;;5062138;28;20095;-84
2022/07/24 06:31:47;;;;;;;3.67;3.47;;;;;;;;;;5058664;28;20084;-83
2022/07/24 06:34:14;;;;;;;5.07;3.50;;;;;;;;;;5058815;28;20040;-83
2022/07/24 06:36:41;;;;;;;4.10;3.80;;;;;;;;;;5076350;28;20094;-83
2022/07/24 06:39:09;;;;;;;3.20;3.00;;;;;;;;;;5058573;28;20485;-83
2022/07/24 06:41:36;;;;;;;3.30;3.10;;;;;;;;;;5058269;28;20101;-83
2022/07/24 06:44:03;;;;;;;2.65;2.55;;;;;;;;;;5076093;28;20555;-84
2022/07/24 06:46:30;;;;;;;7.15;2.70;;;;;;;;;;5058228;28;20555;-83
2022/07/24 06:48:57;;;;;;;2.40;2.30;;;;;;;;;;5058694;28;20044;-84
2022/07/24 06:51:25;;;;;;;2.85;2.55;;;;;;;;;;5057991;28;20453;-84
2022/07/24 06:53:52;;;;;;;3.45;2.63;;;;;;;;;;5057992;28;20044;-82
2022/07/24 06:56:19;;;;;;;6.13;2.50;;;;;;;;;;5075373;28;20076;-83
2022/07/24 06:58:46;;;;;;;3.08;2.50;;;;;;;;;;5058372;28;20405;-83
2022/07/24 07:01:13;;;;;;;2.47;1.90;;;;;;;;;;5058653;28;20083;-82
2022/07/24 07:03:42;;;;;;;2.78;2.20;;;;;;;;;;5076111;28;20040;-84
2022/07/24 07:06:09;;;;;;;1.90;1.80;;;;;;;;;;5058415;28;20450;-82
2022/07/24 07:08:36;;;;;;;2.03;1.60;;;;;;;;;;5058731;28;20049;-83
2022/07/24 07:11:03;;;;;;;2.55;2.00;;;;;;;;;;5058181;28;20148;-83
2022/07/24 07:13:30;;;;;;;2.40;2.03;;;;;;;;;;5057525;28;20498;-82
2022/07/24 07:15:58;;;;;;;3.35;2.28;;;;;;;;;;5057016;28;20080;-82
2022/07/24 07:18:25;;;;;;;4.10;1.75;;;;;;;;;;5057661;28;20131;-82
2022/07/24 07:20:53;;;;;;;2.72;1.98;;;;;;;;;;5057553;28;20045;-82
2022/07/24 07:23:21;;;;;;;1.70;1.60;;;;;;;;;;5057307;28;20123;-84
2022/07/24 07:25:49;;;;;;;3.47;1.52;;;;;;;;;;5057435;28;20110;-83
2022/07/24 07:28:17;;;;;;;2.38;1.80;;;;;;;;;;5057405;28;20053;-86
2022/07/24 07:30:44;;;;;;;1.77;1.67;;;;;;;;;;5057230;28;20052;-85
2022/07/24 07:33:11;;;;;;;4.82;1.50;;;;;;;;;;5057369;28;20053;-85
2022/07/24 07:35:39;;;;;;;2.58;1.73;;;;;;;;;;5076383;28;20398;-83
2022/07/24 07:38:06;;;;;;;3.25;2.03;;;;;;;;;;5057901;28;20067;-83
2022/07/24 07:40:33;;;;;;;3.20;1.55;;;;;;;;;;5058052;28;20041;-84
2022/07/24 07:43:01;;;;;;;2.45;1.52;;;;;;;;;;5075051;28;20055;-84
2022/07/24 07:45:28;;;;;;;4.00;1.70;;;;;;;;;;5057058;28;20049;-84
2022/07/24 07:47:58;;;;;;;2.42;1.58;;;;;;;;;;5057241;28;20497;-83
2022/07/24 07:50:26;;;;;;;1.45;1.45;;;;;;;;;;5056827;28;20102;-84
2022/07/24 07:52:54;;;;;;;3.17;1.83;;;;;;;;;;5057172;28;20045;-83
2022/07/24 07:55:21;;;;;;;1.85;1.50;;;;;;;;;;5056953;28;20045;-83
2022/07/24 07:57:49;;;;;;;3.35;1.48;;;;;;;;;;5057105;28;20144;-83
2022/07/24 08:00:33;;;;;;;2.53;1.65;;;;;;;;;;5059141;28;20132;-84
2022/07/24 08:03:00;;;;;;;1.90;1.50;;;;;;;;;;5056755;28;20045;-80
2022/07/24 08:05:27;;;;;;;2.20;1.35;;;;;;;;;;5074411;28;20104;-86
2022/07/24 08:07:54;;;;;;;2.83;1.48;;;;;;;;;;5056824;28;20067;-83
2022/07/24 08:10:22;;;;;;;2.92;1.50;;;;;;;;;;5056898;28;20464;-83
2022/07/24 08:12:49;;;;;;;3.70;1.42;;;;;;;;;;5056795;28;20082;-82
2022/07/24 08:15:17;;;;;;;1.92;1.55;;;;;;;;;;5056838;28;20072;-85
2022/07/24 08:17:44;;;;;;;2.05;1.48;;;;;;;;;;5056859;28;20052;-82
2022/07/24 08:20:12;;;;;;;1.25;1.15;;;;;;;;;;5056533;28;20045;-84
2022/07/24 08:22:39;;;;;;;1.42;1.33;;;;;;;;;;5074963;28;20068;-82
2022/07/24 08:25:06;;;;;;;3.28;1.63;;;;;;;;;;5056786;28;20048;-85
2022/07/24 08:27:37;;;;;;;1.70;1.60;;;;;;;;;;5073154;28;20103;-86
2022/07/24 08:30:05;;;;;;;3.53;1.70;;;;;;;;;;5056395;28;20080;-83
2022/07/24 08:32:33;;;;;;;1.80;1.70;;;;;;;;;;5056251;28;20048;-83
2022/07/24 08:35:01;;;;;;;1.70;1.60;;;;;;;;;;5057172;28;20091;-84
2022/07/24 08:37:28;;;;;;;2.13;1.65;;;;;;;;;;5056302;28;20084;-85
2022/07/24 08:39:55;;;;;;;2.58;1.75;;;;;;;;;;5056295;28;20547;-83
2022/07/24 08:42:23;;;;;;;1.70;1.60;;;;;;;;;;5057143;28;20070;-83
2022/07/24 08:44:50;;;;;;;1.77;1.60;;;;;;;;;;5074538;28;20045;-81
2022/07/24 08:47:27;;;;;;;2.65;1.67;;;;;;;;;;5091002;27;20171;-82
2022/07/24 08:49:55;;;;;;;1.73;1.63;;;;;;;;;;5089525;28;20414;-82
2022/07/24 08:52:22;;;;;;;1.73;1.63;;;;;;;;;;5089429;28;20082;-81
2022/07/24 08:54:51;;;;;;;1.50;1.40;;;;;;;;;;5089480;28;20078;-84
2022/07/24 08:57:18;;;;;;;2.25;2.05;;;;;;;;;;5090429;28;20452;-84
2022/07/24 08:59:45;;;;;;;3.20;1.90;;;;;;;;;;5089691;28;20286;-87
2022/07/24 09:02:12;;;;;;;4.03;1.63;;;;;;;;;;5089161;28;20075;-83
2022/07/24 09:04:42;;;;;;;2.50;1.60;;;;;;;;;;5091141;28;20055;-86
2022/07/24 09:07:11;;;;;;;3.28;1.55;;;;;;;;;;5088951;28;20072;-87
2022/07/24 09:09:39;;;;;;;2.88;1.42;;;;;;;;;;5090201;28;20435;-83
2022/07/24 09:12:17;;;;;;;1.58;1.48;;;;;;;;;;5088847;28;20064;-84
2022/07/24 09:14:48;;;;;;;1.88;1.70;;;;;;;;;;5089225;28;20382;-84
2022/07/24 09:17:16;;;;;;;2.38;1.80;;;;;;;;;;5088882;28;20097;-86
2022/07/24 09:19:52;;;;;;;4.10;1.60;;;;;;;;;;5089393;28;20055;-84
2022/07/24 09:22:38;;;;;;;2.08;1.45;;;;;;;;;;5089963;28;20072;-83
2022/07/24 09:25:05;;;;;;;1.50;1.40;;;;;;;;;;5089600;28;20052;-84
2022/07/24 09:27:33;;;;;;;4.25;1.73;;;;;;;;;;5088238;28;20391;-85
2022/07/24 09:30:00;;;;;;;4.63;1.50;;;;;;;;;;5088550;28;20048;-85
2022/07/24 09:32:28;;;;;;;1.98;1.38;;;;;;;;;;5088760;28;20045;-87
2022/07/24 09:34:57;;;;;;;1.58;1.40;;;;;;;;;;5088286;28;20443;-85
2022/07/24 09:37:26;;;;;;;2.70;1.60;;;;;;;;;;5088029;28;20097;-84
2022/07/24 09:40:06;;;;;;;3.92;1.75;;;;;;;;;;5088625;28;20184;-86
2022/07/24 09:42:38;;;;;;;2.22;1.77;;;;;;;;;;5088152;28;20109;-84
2022/07/24 09:45:08;;;;;;;2.80;1.65;;;;;;;;;;5087821;28;20051;-85
2022/07/24 09:47:36;;;;;;;1.70;1.60;;;;;;;;;;5088429;28;20123;-83
2022/07/24 09:50:13;;;;;;;1.80;1.70;;;;;;;;;;5088211;28;20049;-84
2022/07/24 09:52:42;;;;;;;2.47;1.83;;;;;;;;;;5088153;28;20465;-84
2022/07/24 09:55:23;;;;;;;1.95;1.80;;;;;;;;;;5088969;28;20402;-86
2022/07/24 09:57:50;;;;;;;2.83;1.80;;;;;;;;;;5079369;28;20486;-88
2022/07/24 10:00:17;;;;;;;2.67;1.40;;;;;;;;;;5074294;28;20118;-85
2022/07/24 10:02:45;;;;;;;3.35;1.75;;;;;;;;;;5074476;28;20048;-86
2022/07/24 10:05:14;;;;;;;1.70;1.60;;;;;;;;;;5074246;28;20052;-85
2022/07/24 10:07:48;;;;;;;5.63;2.03;;;;;;;;;;5074378;28;20048;-84
2022/07/24 10:10:15;;;;;;;1.90;1.83;;;;;;;;;;5074423;28;20414;-85
2022/07/24 10:12:44;;;;;;;2.17;1.98;;;;;;;;;;5075797;28;20048;-86
2022/07/24 10:15:12;;;;;;;1.85;1.50;;;;;;;;;;5075720;28;20079;-84
2022/07/24 10:17:42;;;;;;;1.80;1.70;;;;;;;;;;5074453;28;20084;-83
2022/07/24 10:20:10;;;;;;;2.40;1.80;;;;;;;;;;5074559;28;20136;-87
2022/07/24 10:23:04;;;;;;;2.95;1.88;;;;;;;;;;5074608;28;20417;-85
2022/07/24 10:26:01;;;;;;;2.60;1.52;;;;;;;;;;5074847;28;20045;-87
2022/07/24 10:28:37;;;;;;;2.05;1.52;;;;;;;;;;5069679;28;20045;-87
2022/07/24 10:31:05;;;;;;;1.65;1.55;;;;;;;;;;5074579;28;20097;-85
2022/07/24 10:33:33;;;;;;;1.40;1.30;;;;;;;;;;5074119;28;20513;-86
2022/07/24 10:36:02;;;;;;;2.17;2.00;;;;;;;;;;5073858;28;20552;-85
2022/07/24 10:38:33;;;;;;;2.70;1.70;;;;;;;;;;5074853;28;20125;-82
2022/07/24 10:41:03;;;;;;;2.00;1.90;;;;;;;;;;5075234;28;20497;-85
2022/07/24 10:43:30;;;;;;;1.90;1.73;;;;;;;;;;5074901;28;20056;-85
2022/07/24 10:45:57;;;;;;;4.93;2.05;;;;;;;;;;5074246;28;20105;-83
2022/07/24 10:48:26;;;;;;;1.80;1.70;;;;;;;;;;5075351;28;20094;-83
2022/07/24 10:51:00;;;;;;;3.85;1.77;;;;;;;;;;5074922;28;20041;-83
2022/07/24 10:53:27;;;;;;;;;;;;;;;;;;5075313;28;20556;-83
2022/07/24 10:56:14;;;;;;;3.53;1.60;;;;;;;;;;5075326;28;20416;-86
2022/07/24 10:59:00;;;;;;;1.83;1.73;;;;;;;;;;5073617;28;20131;-86
2022/07/24 11:01:31;;;;;;;2.13;1.50;;;;;;;;;;5073775;28;20059;-86
2022/07/24 11:04:00;;;;;;;2.13;1.90;;;;;;;;;;5074203;28;20055;-85
2022/07/24 11:06:41;;;;;;;2.10;2.00;;;;;;;;;;5077338;28;20513;-83
2022/07/24 11:09:08;;;;;;;1.70;1.70;;;;;;;;;;5073337;28;20484;-83
2022/07/24 11:11:40;;;;;;;4.70;2.13;;;;;;;;;;5073293;28;20049;-82
2022/07/24 11:14:11;;;;;;;1.90;1.80;;;;;;;;;;5073834;28;20041;-84
2022/07/24 11:16:39;;;;;;;3.08;2.10;;;;;;;;;;5073787;28;20177;-83
2022/07/24 11:19:06;;;;;;;3.45;2.22;;;;;;;;;;5073052;28;20414;-86
2022/07/24 11:21:35;;;;;;;2.17;1.92;;;;;;;;;;5073034;28;20125;-87
2022/07/24 11:24:17;;;;;;;2.10;2.00;;;;;;;;;;5074123;28;20559;-86
2022/07/24 11:26:55;;;;;;;2.83;2.57;;;;;;;;;;5073820;28;20049;-86
2022/07/24 11:29:26;;;;;;;2.35;2.00;;;;;;;;;;5072687;28;20859;-85
2022/07/24 11:31:59;;;;;;;4.22;2.08;;;;;;;;;;5072727;28;20048;-86
2022/07/24 11:34:27;;;;;;;2.15;1.80;;;;;;;;;;5074349;28;20051;-87
2022/07/24 11:36:55;;;;;;;2.20;2.00;;;;;;;;;;5073256;28;20067;-84
2022/07/24 11:39:29;;;;;;;2.00;1.90;;;;;;;;;;5074431;28;20410;-84
2022/07/24 11:41:58;;;;;;;2.47;2.28;;;;;;;;;;5073225;28;20052;-86
2022/07/24 11:44:35;;;;;;;2.15;2.05;;;;;;;;;;5074319;28;20052;-84
2022/07/24 11:47:29;;;;;;;4.22;1.98;;;;;;;;;;5073116;28;20048;-83
2022/07/24 11:49:56;;;;;;;;;;;;;;;;;;5072039;28;20127;-85
2022/07/24 11:52:24;;;;;;;3.75;2.08;;;;;;;;;;5073833;28;19927;-83
2022/07/24 11:54:54;;;;;;;4.85;2.47;;;;;;;;;;5072837;28;20067;-84
2022/07/24 11:57:23;;;;;;;2.10;1.95;;;;;;;;;;5072261;28;20560;-85
2022/07/24 12:00:29;;;;;;;2.45;2.35;;;;;;;;;;5075876;28;20058;-83
2022/07/24 12:03:03;;;;;;;3.58;2.10;;;;;;;;;;5073948;28;20106;-85
2022/07/24 12:05:37;;;;;;;2.07;1.97;;;;;;;;;;5078943;28;20048;-84
2022/07/24 12:08:15;;;;;;;2.65;2.30;;;;;;;;;;5074619;28;20045;-86
2022/07/24 12:10:42;;;;;;;2.85;2.35;;;;;;;;;;5075353;28;20051;-83
2022/07/24 12:13:09;;;;;;;3.03;2.15;;;;;;;;;;5076694;28;20045;-82
2022/07/24 12:15:39;;;;;;;3.88;2.00;;;;;;;;;;5073777;28;20064;-85
2022/07/24 12:18:08;;;;;;;2.35;2.15;;;;;;;;;;5072484;28;20109;-85
2022/07/24 12:20:40;;;;;;;3.47;2.40;;;;;;;;;;5072329;28;20517;-85
2022/07/24 12:23:15;;;;;;;2.30;2.10;;;;;;;;;;5072464;28;20051;-84
2022/07/24 12:25:43;;;;;;;2.13;2.05;;;;;;;;;;5072749;28;20048;-84
2022/07/24 12:28:15;;;;;;;2.10;2.00;;;;;;;;;;5071917;28;20049;-84
2022/07/24 12:30:44;;;;;;;4.63;2.17;;;;;;;;;;5072142;28;20044;-84
2022/07/24 12:33:14;;;;;;;2.70;2.40;;;;;;;;;;5072120;28;20102;-84
2022/07/24 12:35:59;;;;;;;4.72;2.40;;;;;;;;;;5072172;28;20090;-83
2022/07/24 12:38:31;;;;;;;2.50;2.30;;;;;;;;;;5072696;28;20067;-86
2022/07/24 12:41:17;;;;;;;2.35;2.25;;;;;;;;;;5073222;28;20473;-86
2022/07/24 12:43:53;;;;;;;2.80;2.58;;;;;;;;;;5072271;28;20545;-85
2022/07/24 12:46:25;;;;;;;4.47;2.45;;;;;;;;;;5071683;28;20052;-84
2022/07/24 12:49:01;;;;;;;2.88;2.50;;;;;;;;;;5071927;28;20493;-84
2022/07/24 12:51:45;;;;;;;3.00;2.67;;;;;;;;;;5071943;28;20048;-83
2022/07/24 12:54:16;;;;;;;3.25;2.45;;;;;;;;;;5072172;28;20052;-84
2022/07/24 12:56:44;;;;;;;2.33;2.13;;;;;;;;;;5072867;28;20091;-85
2022/07/24 12:59:26;;;;;;;4.20;2.50;;;;;;;;;;5072111;28;20151;-84
2022/07/24 13:01:54;;;;;;;3.42;2.80;;;;;;;;;;5073273;28;20112;-83
2022/07/24 13:04:23;;;;;;;2.30;2.20;;;;;;;;;;5072780;28;20052;-82
2022/07/24 13:06:52;;;;;;;2.33;2.20;;;;;;;;;;5072227;28;20059;-83
2022/07/24 13:09:20;;;;;;;4.15;2.47;;;;;;;;;;5071377;28;20045;-85
2022/07/24 13:11:48;;;;;;;3.42;2.78;;;;;;;;;;5071602;28;20094;-85
2022/07/24 13:14:17;;;;;;;2.30;2.20;;;;;;;;;;5072181;28;20410;-84
2022/07/24 13:16:45;;;;;;;4.38;2.50;;;;;;;;;;5071577;28;20048;-84
2022/07/24 13:19:12;;;;;;;2.70;2.50;;;;;;;;;;5071876;28;20498;-83
2022/07/24 13:21:39;;;;;;;2.55;2.45;;;;;;;;;;5071919;28;20122;-85
2022/07/24 13:24:08;;;;;;;2.92;2.22;;;;;;;;;;5083217;28;20464;-84
2022/07/24 13:26:36;;;;;;;2.83;2.65;;;;;;;;;;5078044;28;20087;-83
2022/07/24 13:29:04;;;;;;;3.10;2.90;;;;;;;;;;5071897;28;20048;-84
2022/07/24 13:31:31;;;;;;;2.40;2.30;;;;;;;;;;5072091;28;20044;-84
2022/07/24 13:33:59;;;;;;;2.97;2.70;;;;;;;;;;5074796;28;20049;-86
2022/07/24 13:36:27;;;;;;;2.42;2.22;;;;;;;;;;5075203;28;20468;-85
2022/07/24 13:38:54;;;;;;;2.40;2.30;;;;;;;;;;5075932;28;20486;-85
2022/07/24 13:41:23;;;;;;;2.60;2.40;;;;;;;;;;5075378;28;20509;-84
2022/07/24 13:43:51;;;;;;;3.88;2.80;;;;;;;;;;5075537;28;20048;-84
2022/07/24 13:46:18;;;;;;;2.55;2.35;;;;;;;;;;5075878;28;20045;-83
2022/07/24 13:48:48;;;;;;;2.40;2.30;;;;;;;;;;5075071;28;20052;-84
2022/07/24 13:51:23;;;;;;;2.42;2.17;;;;;;;;;;5075352;28;20049;-83
2022/07/24 13:53:51;;;;;;;2.72;2.58;;;;;;;;;;5078141;28;20052;-83
2022/07/24 13:56:18;;;;;;;3.90;2.60;;;;;;;;;;5075208;28;20049;-86
2022/07/24 13:58:45;;;;;;;2.58;2.42;;;;;;;;;;5077077;28;20116;-84
2022/07/24 14:01:17;;;;;;;2.75;2.55;;;;;;;;;;5076708;28;20068;-86
2022/07/24 14:03:44;;;;;;;2.50;2.40;;;;;;;;;;5074791;28;20485;-84
2022/07/24 14:06:32;;;;;;;2.70;2.50;;;;;;;;;;5074689;28;20135;-84
2022/07/24 14:08:59;;;;;;;2.65;2.55;;;;;;;;;;5074708;28;20049;-85
2022/07/24 14:11:26;;;;;;;2.58;2.38;;;;;;;;;;5074500;28;20081;-85
2022/07/24 14:13:53;;;;;;;2.40;2.30;;;;;;;;;;5074449;28;20059;-84
2022/07/24 14:16:21;;;;;;;2.60;2.50;;;;;;;;;;5074359;28;20181;-84
2022/07/24 14:18:48;;;;;;;3.05;2.65;;;;;;;;;;5074836;28;20063;-84
2022/07/24 14:21:16;;;;;;;3.20;2.90;;;;;;;;;;5075448;28;20072;-83
2022/07/24 14:23:43;;;;;;;3.05;2.70;;;;;;;;;;5077282;28;20048;-85
2022/07/24 14:26:10;;;;;;;2.88;2.70;;;;;;;;;;5074256;28;20080;-84
2022/07/24 14:28:37;;;;;;;4.35;2.95;;;;;;;;;;5074687;28;20463;-84
2022/07/24 14:31:04;;;;;;;2.80;2.60;;;;;;;;;;5075430;28;20048;-84
2022/07/24 14:33:33;;;;;;;6.43;3.00;;;;;;;;;;5074760;28;20118;-86
2022/07/24 14:36:01;;;;;;;8.70;2.80;;;;;;;;;;5073787;28;20083;-84
2022/07/24 14:38:28;;;;;;;2.83;2.63;;;;;;;;;;5074257;28;20120;-84
2022/07/24 14:40:55;;;;;;;2.83;2.63;;;;;;;;;;5075871;28;20087;-83
2022/07/24 14:43:22;;;;;;;2.83;2.63;;;;;;;;;;5073833;28;20113;-85
2022/07/24 14:45:50;;;;;;;3.88;2.70;;;;;;;;;;5074115;28;20388;-85
2022/07/24 14:48:17;;;;;;;5.13;2.97;;;;;;;;;;5075405;28;20072;-84
2022/07/24 14:50:44;;;;;;;4.18;2.70;;;;;;;;;;5074835;28;20107;-84
2022/07/24 14:53:12;;;;;;;2.88;2.67;;;;;;;;;;5075889;28;20456;-84